createdAt,value
2023-05-14T00:00:39.679Z,94.26
2023-05-14T00:02:20.115Z,94.82
2023-05-14T00:04:00.651Z,95.26
2023-05-14T00:05:40.928Z,95.13
2023-05-14T00:07:21.299Z,94.66
2023-05-14T00:09:01.645Z,94.45
2023-05-14T00:10:42.009Z,94.32
2023-05-14T00:12:22.373Z,94.73
2023-05-14T00:14:02.801Z,94.81
2023-05-14T00:15:43.113Z,95.07
2023-05-14T00:17:23.638Z,95.21
2023-05-14T00:19:04.139Z,95.32
2023-05-14T00:20:44.469Z,95.13
2023-05-14T00:22:24.823Z,95.27
2023-05-14T00:24:05.066Z,95.37
2023-05-14T00:25:45.472Z,95.34
2023-05-14T00:27:25.839Z,95.57
2023-05-14T00:29:06.331Z,95.7
2023-05-14T00:30:46.706Z,95.8
2023-05-14T00:32:27.130Z,95.84
2023-05-14T00:34:07.494Z,95.59
2023-05-14T00:35:47.869Z,95.25
2023-05-14T00:37:28.282Z,95.25
2023-05-14T00:39:08.685Z,95.01
2023-05-14T00:40:48.978Z,95.14
2023-05-14T00:42:29.397Z,94.98
2023-05-14T00:44:09.825Z,94.55
2023-05-14T00:45:50.169Z,94.83
2023-05-14T00:47:30.595Z,95.5
2023-05-14T00:49:10.940Z,95.8
2023-05-14T00:50:51.411Z,95.89
2023-05-14T00:52:31.840Z,96.14
2023-05-14T00:54:12.275Z,96.23
2023-05-14T00:55:52.708Z,96.5
2023-05-14T00:57:33.126Z,96.49
2023-05-14T00:59:13.589Z,96.73
2023-05-14T01:00:53.960Z,96.75
2023-05-14T01:02:34.463Z,96.72
2023-05-14T01:04:14.746Z,96.71
2023-05-14T01:05:55.119Z,96.48
2023-05-14T01:07:35.550Z,96.59
2023-05-14T01:09:15.922Z,96.62
2023-05-14T01:10:56.319Z,96.61
2023-05-14T01:12:36.728Z,96.65
2023-05-14T01:14:17.093Z,96.44
2023-05-14T01:15:57.575Z,96.42
2023-05-14T01:17:38.082Z,96.6
2023-05-14T01:19:18.437Z,96.64
2023-05-14T01:20:58.772Z,96.96
2023-05-14T01:22:39.273Z,96.89
2023-05-14T01:24:19.669Z,96.78
2023-05-14T01:26:00.056Z,96.68
2023-05-14T01:27:40.536Z,96.65
2023-05-14T01:29:20.881Z,96.46
2023-05-14T01:31:01.227Z,96.47
2023-05-14T01:32:41.739Z,96.64
2023-05-14T01:34:22.058Z,96.72
2023-05-14T01:36:02.500Z,96.64
2023-05-14T01:37:42.872Z,96.62
2023-05-14T01:39:23.326Z,96.45
2023-05-14T01:41:03.680Z,96.31
2023-05-14T01:42:44.090Z,96.31
2023-05-14T01:44:24.521Z,96.26
2023-05-14T01:46:04.999Z,96.36
2023-05-14T01:47:45.308Z,96.31
2023-05-14T01:49:25.638Z,96.39
2023-05-14T01:51:06.067Z,96.54
2023-05-14T01:52:46.471Z,96.54
2023-05-14T01:54:26.900Z,96.5
2023-05-14T01:56:07.327Z,96.48
2023-05-14T01:57:47.692Z,96.56
2023-05-14T01:59:28.156Z,96.73
2023-05-14T02:01:08.667Z,96.8
2023-05-14T02:02:49.011Z,96.8
2023-05-14T02:04:29.377Z,96.74
2023-05-14T02:06:09.817Z,96.96
2023-05-14T02:09:30.588Z,97.45
2023-05-14T02:11:11.008Z,97.63
2023-05-14T02:12:51.408Z,97.66
2023-05-14T02:14:31.839Z,97.62
2023-05-14T02:16:12.291Z,97.71
2023-05-14T02:17:52.686Z,97.94
2023-05-14T02:19:33.013Z,98.03
2023-05-14T02:21:13.376Z,98.02
2023-05-14T02:22:53.788Z,98.17
2023-05-14T02:24:34.260Z,98.24
2023-05-14T02:26:14.680Z,98.19
2023-05-14T02:27:55.137Z,98.09
2023-05-14T02:29:35.593Z,98.08
2023-05-14T02:31:15.924Z,98.15
2023-05-14T02:32:56.325Z,98.13
2023-05-14T02:34:36.567Z,98.12
2023-05-14T02:36:16.968Z,98.06
2023-05-14T02:37:57.308Z,97.98
2023-05-14T02:39:37.762Z,97.91
2023-05-14T02:41:18.224Z,97.9
2023-05-14T02:42:58.561Z,97.95
2023-05-14T02:44:39.018Z,97.81
2023-05-14T02:46:19.418Z,97.91
2023-05-14T02:47:59.841Z,97.89
2023-05-14T02:49:40.183Z,97.93
2023-05-14T02:51:20.571Z,98.05
2023-05-14T02:53:01.048Z,98.23
2023-05-14T02:54:41.429Z,98.28
2023-05-14T02:56:21.901Z,98.27
2023-05-14T02:58:02.316Z,98.3
2023-05-14T02:59:42.728Z,98.47
2023-05-14T03:01:23.167Z,98.51
2023-05-14T03:03:03.522Z,98.49
2023-05-14T03:04:43.861Z,98.52
2023-05-14T03:06:24.327Z,98.65
2023-05-14T03:08:04.731Z,98.6
2023-05-14T03:09:45.162Z,98.54
2023-05-14T03:11:25.549Z,98.54
2023-05-14T03:13:05.950Z,98.48
2023-05-14T03:14:46.412Z,98.39
2023-05-14T03:16:26.882Z,98.48
2023-05-14T03:18:07.316Z,98.59
2023-05-14T03:19:47.702Z,98.65
2023-05-14T03:21:28.147Z,98.66
2023-05-14T03:23:08.652Z,98.63
2023-05-14T03:24:48.972Z,98.52
2023-05-14T03:26:29.405Z,98.46
2023-05-14T03:28:09.789Z,98.54
2023-05-14T03:29:50.201Z,98.61
2023-05-14T03:31:30.586Z,98.73
2023-05-14T03:33:10.986Z,98.81
2023-05-14T03:34:51.453Z,98.68
2023-05-14T03:36:31.913Z,98.57
2023-05-14T03:38:12.288Z,98.55
2023-05-14T03:39:52.701Z,98.43
2023-05-14T03:41:33.021Z,98.62
2023-05-14T03:43:13.389Z,98.71
2023-05-14T03:44:53.829Z,98.76
2023-05-14T03:46:34.213Z,98.81
2023-05-14T03:48:14.739Z,98.81
2023-05-14T03:49:55.120Z,98.79
2023-05-14T03:51:35.586Z,98.81
2023-05-14T03:53:15.962Z,98.66
2023-05-14T03:54:56.386Z,98.57
2023-05-14T03:56:36.802Z,98.6
2023-05-14T03:58:17.222Z,98.67
2023-05-14T03:59:57.699Z,98.57
2023-05-14T04:01:37.937Z,98.57
2023-05-14T04:03:18.276Z,98.59
2023-05-14T04:04:58.572Z,98.73
2023-05-14T04:06:38.976Z,98.83
2023-05-14T04:08:19.418Z,98.98
2023-05-14T04:10:01.165Z,99.02
2023-05-14T04:11:40.306Z,99.01
2023-05-14T04:13:20.743Z,99.05
2023-05-14T04:15:01.128Z,99.06
2023-05-14T04:16:41.577Z,99.12
2023-05-14T04:18:21.962Z,99.15
2023-05-14T04:20:02.392Z,99.15
2023-05-14T04:21:42.807Z,99.21
2023-05-14T04:23:23.295Z,99.24
2023-05-14T04:25:03.739Z,99.32
2023-05-14T04:26:44.241Z,99.28
2023-05-14T04:28:24.681Z,99.28
2023-05-14T04:30:05.080Z,99.24
2023-05-14T04:31:45.494Z,99.2
2023-05-14T04:33:25.647Z,99.28
2023-05-14T04:35:06.074Z,99.21
2023-05-14T04:36:46.476Z,99.26
2023-05-14T04:38:26.881Z,99.39
2023-05-14T04:40:07.303Z,99.47
2023-05-14T04:41:47.817Z,99.45
2023-05-14T04:43:28.238Z,99.47
2023-05-14T04:45:08.650Z,99.49
2023-05-14T04:46:49.138Z,99.42
2023-05-14T04:48:29.572Z,99.39
2023-05-14T04:50:09.900Z,99.42
2023-05-14T04:51:50.308Z,99.48
2023-05-14T04:53:30.703Z,99.48
2023-05-14T04:55:11.210Z,99.64
2023-05-14T04:56:51.637Z,99.74
2023-05-14T04:58:34.497Z,99.81
2023-05-14T05:00:12.553Z,99.94
2023-05-14T05:01:52.866Z,100
2023-05-14T05:03:33.238Z,100
2023-05-14T05:05:13.674Z,100
2023-05-14T05:06:54.022Z,100
2023-05-14T05:08:34.498Z,100
2023-05-14T05:10:14.871Z,100
2023-05-14T05:11:55.383Z,100
2023-05-14T05:13:35.807Z,100
2023-05-14T05:15:16.273Z,99.99
2023-05-14T05:16:56.655Z,99.95
2023-05-14T05:18:37.117Z,99.78
2023-05-14T05:20:17.445Z,99.55
2023-05-14T05:21:57.880Z,99.35
2023-05-14T05:23:38.331Z,99.13
2023-05-14T05:25:18.714Z,98.97
2023-05-14T05:26:59.133Z,98.84
2023-05-14T05:28:39.586Z,98.65
2023-05-14T05:30:19.970Z,98.44
2023-05-14T05:32:00.444Z,98.15
2023-05-14T05:33:40.641Z,97.88
2023-05-14T05:35:21.118Z,97.53
2023-05-14T05:37:01.529Z,97.08
2023-05-14T05:38:41.995Z,96.63
2023-05-14T05:40:22.572Z,96.16
2023-05-14T05:42:02.918Z,95.55
2023-05-14T05:43:43.357Z,94.97
2023-05-14T05:45:23.812Z,94.81
2023-05-14T05:47:04.399Z,94.54
2023-05-14T05:48:44.585Z,94.25
2023-05-14T05:50:25.186Z,93.47
2023-05-14T05:52:05.395Z,93
2023-05-14T05:53:45.858Z,92.72
2023-05-14T05:55:26.259Z,92.35
2023-05-14T05:57:06.628Z,92.48
2023-05-14T05:58:47.136Z,91.91
2023-05-14T06:00:27.573Z,91.76
2023-05-14T06:02:07.899Z,90.78
2023-05-14T06:03:48.789Z,89.91
2023-05-14T06:05:28.590Z,90.04
2023-05-14T06:07:08.968Z,88.27
2023-05-14T06:08:49.503Z,87.35
2023-05-14T06:10:29.906Z,87.13
2023-05-14T06:12:10.306Z,86.64
2023-05-14T06:13:50.696Z,85.04
2023-05-14T06:15:31.121Z,85.07
2023-05-14T06:17:11.483Z,83
2023-05-14T06:18:51.841Z,83.4
2023-05-14T06:20:32.026Z,82.58
2023-05-14T06:22:12.440Z,82.28
2023-05-14T06:23:52.993Z,81.71
2023-05-14T06:25:33.334Z,80.74
2023-05-14T06:27:13.714Z,81.58
2023-05-14T06:28:54.179Z,79.98
2023-05-14T06:30:34.638Z,79.27
2023-05-14T06:32:15.120Z,80.03
2023-05-14T06:33:55.513Z,79.8
2023-05-14T06:35:36.140Z,79.15
2023-05-14T06:37:16.496Z,79.21
2023-05-14T06:38:57.031Z,79.77
2023-05-14T06:40:37.458Z,79.31
2023-05-14T06:42:17.932Z,78.58
2023-05-14T06:43:58.326Z,76.53
2023-05-14T06:45:38.752Z,75.64
2023-05-14T06:47:19.108Z,75.9
2023-05-14T06:48:59.809Z,76.16
2023-05-14T06:50:39.906Z,74.23
2023-05-14T06:52:20.312Z,73.79
2023-05-14T06:54:00.730Z,73.23
2023-05-14T06:55:41.159Z,75.24
2023-05-14T06:57:21.655Z,71.35
2023-05-14T06:59:02.064Z,70.47
2023-05-14T07:00:42.495Z,71.47
2023-05-14T07:02:22.841Z,71.58
2023-05-14T07:04:03.164Z,70.31
2023-05-14T07:05:43.539Z,68.01
2023-05-14T07:07:23.931Z,67.1
2023-05-14T07:09:04.418Z,66.72
2023-05-14T07:10:44.881Z,67.62
2023-05-14T07:12:25.310Z,67.41
2023-05-14T07:14:05.803Z,67.06
2023-05-14T07:15:46.283Z,67.19
2023-05-14T07:17:26.858Z,67.21
2023-05-14T07:19:07.227Z,66.28
2023-05-14T07:20:47.542Z,65.02
2023-05-14T07:22:27.915Z,65.09
2023-05-14T07:24:08.414Z,66.45
2023-05-14T07:25:48.776Z,64.75
2023-05-14T07:27:29.165Z,63.16
2023-05-14T07:29:09.653Z,62.73
2023-05-14T07:30:50.044Z,63.98
2023-05-14T07:32:30.319Z,63.02
2023-05-14T07:34:10.665Z,62.6
2023-05-14T07:35:51.123Z,63.11
2023-05-14T07:37:31.513Z,62.04
2023-05-14T07:39:11.993Z,61.35
2023-05-14T07:40:52.384Z,60.87
2023-05-14T07:42:36.596Z,61.38
2023-05-14T07:44:13.231Z,61.58
2023-05-14T07:45:53.711Z,62
2023-05-14T07:47:34.295Z,58.84
2023-05-14T07:49:14.674Z,59.78
2023-05-14T07:50:55.044Z,58.56
2023-05-14T07:52:35.452Z,57.44
2023-05-14T07:54:15.885Z,57.12
2023-05-14T07:55:56.306Z,55.74
2023-05-14T07:57:36.766Z,55.59
2023-05-14T07:59:17.164Z,52.98
2023-05-14T08:00:57.570Z,52.99
2023-05-14T08:02:38.081Z,51.3
2023-05-14T08:04:18.456Z,51.16
2023-05-14T08:05:58.840Z,50.34
2023-05-14T08:07:39.323Z,51.83
2023-05-14T08:09:19.723Z,50.26
2023-05-14T08:11:00.242Z,50.32
2023-05-14T08:12:40.502Z,51.08
2023-05-14T08:14:20.894Z,50.33
2023-05-14T08:16:01.288Z,50.68
2023-05-14T08:17:41.712Z,52.34
2023-05-14T08:19:22.144Z,51.99
2023-05-14T08:21:03.730Z,52.77
2023-05-14T08:22:43.039Z,54.01
2023-05-14T08:24:23.452Z,53.52
2023-05-14T08:26:03.900Z,52.53
2023-05-14T08:27:44.249Z,53.53
2023-05-14T08:29:24.691Z,53.42
2023-05-14T08:31:05.163Z,52.55
2023-05-14T08:32:45.568Z,54.51
2023-05-14T08:34:25.985Z,52.53
2023-05-14T08:36:06.334Z,53.05
2023-05-14T08:37:46.724Z,51.45
2023-05-14T08:39:27.099Z,53.15
2023-05-14T08:41:07.567Z,52.51
2023-05-14T08:42:47.997Z,51.48
2023-05-14T08:44:28.458Z,50.01
2023-05-14T08:46:08.934Z,49.95
2023-05-14T08:47:49.363Z,50.41
2023-05-14T08:49:29.764Z,55.47
2023-05-14T08:51:10.192Z,47.97
2023-05-14T08:52:50.570Z,49.05
2023-05-14T08:54:31.071Z,48.04
2023-05-14T08:56:11.448Z,47.66
2023-05-14T08:57:51.909Z,45.32
2023-05-14T08:59:32.365Z,48.42
2023-05-14T09:01:12.821Z,45.23
2023-05-14T09:02:53.229Z,43.33
2023-05-14T09:04:33.565Z,42.15
2023-05-14T09:06:14.053Z,42.95
2023-05-14T09:07:54.469Z,45.1
2023-05-14T09:09:34.816Z,42.97
2023-05-14T09:11:15.308Z,41.94
2023-05-14T09:12:55.679Z,40.82
2023-05-14T09:14:36.166Z,40.53
2023-05-14T09:16:16.611Z,40.83
2023-05-14T09:17:57.026Z,38.83
2023-05-14T09:19:37.333Z,38.71
2023-05-14T09:21:17.786Z,39.22
2023-05-14T09:22:58.197Z,38.25
2023-05-14T09:24:38.593Z,42.47
2023-05-14T09:26:18.934Z,41.48
2023-05-14T09:27:59.406Z,41.55
2023-05-14T09:29:39.819Z,42.61
2023-05-14T09:31:20.234Z,43.2
2023-05-14T09:33:00.761Z,43.74
2023-05-14T09:34:41.094Z,42.39
2023-05-14T09:36:21.567Z,43.39
2023-05-14T09:38:01.979Z,44.36
2023-05-14T09:39:42.383Z,44.58
2023-05-14T09:41:22.718Z,44.72
2023-05-14T09:43:03.160Z,41.9
2023-05-14T09:44:43.468Z,40.07
2023-05-14T09:46:23.811Z,41.08
2023-05-14T09:48:04.309Z,43.41
2023-05-14T09:49:44.738Z,40.23
2023-05-14T09:51:25.144Z,42.99
2023-05-14T09:53:05.549Z,40.7
2023-05-14T09:54:46.021Z,39.82
2023-05-14T09:56:26.400Z,40.25
2023-05-14T09:58:06.780Z,41.73
2023-05-14T09:59:47.160Z,40.3
2023-05-14T10:01:27.587Z,42.72
2023-05-14T10:03:08.113Z,42.6
2023-05-14T10:04:48.671Z,43.58
2023-05-14T10:06:28.945Z,43.72
2023-05-14T10:08:09.334Z,42.78
2023-05-14T10:09:49.678Z,44.19
2023-05-14T10:11:30.110Z,45.07
2023-05-14T10:13:10.555Z,44.51
2023-05-14T10:14:51.026Z,43.04
2023-05-14T10:16:31.565Z,44.04
2023-05-14T10:18:12.037Z,40.91
2023-05-14T10:19:52.275Z,40.69
2023-05-14T10:21:32.773Z,42.48
2023-05-14T10:23:13.119Z,44.4
2023-05-14T10:24:53.526Z,39
2023-05-14T10:26:34.002Z,40.78
2023-05-14T10:28:14.467Z,38.77
2023-05-14T10:29:54.864Z,38.14
2023-05-14T10:31:35.337Z,38.11
2023-05-14T10:33:15.694Z,38.99
2023-05-14T10:34:56.069Z,40.09
2023-05-14T10:36:36.534Z,38.46
2023-05-14T10:38:16.954Z,38.92
2023-05-14T10:39:57.401Z,36.66
2023-05-14T10:41:37.788Z,38.03
2023-05-14T10:43:18.095Z,38.32
2023-05-14T10:44:58.709Z,39.21
2023-05-14T10:46:39.056Z,39.36
2023-05-14T10:48:19.461Z,38.53
2023-05-14T10:49:59.821Z,38.25
2023-05-14T10:51:40.411Z,35.98
2023-05-14T10:53:20.786Z,35.5
2023-05-14T10:55:03.506Z,37.09
2023-05-14T10:56:41.659Z,35.85
2023-05-14T10:58:21.983Z,37.72
2023-05-14T11:00:02.455Z,37.47
2023-05-14T11:01:42.854Z,37.31
2023-05-14T11:03:23.306Z,36.8
2023-05-14T11:05:03.782Z,41.13
2023-05-14T11:06:44.175Z,37.64
2023-05-14T11:08:27.013Z,35.22
2023-05-14T11:10:05.004Z,37.02
2023-05-14T11:11:45.250Z,40.24
2023-05-14T11:13:25.618Z,34.71
2023-05-14T11:15:06.054Z,37.31
2023-05-14T11:16:46.593Z,36.3
2023-05-14T11:18:26.994Z,36.72
2023-05-14T11:20:07.384Z,39.29
2023-05-14T11:21:47.785Z,33.9
2023-05-14T11:23:28.165Z,34.29
2023-05-14T11:25:08.531Z,35.83
2023-05-14T11:26:48.947Z,38.69
2023-05-14T11:28:29.381Z,37.56
2023-05-14T11:30:09.702Z,37.25
2023-05-14T11:31:50.200Z,37.34
2023-05-14T11:33:30.532Z,36.43
2023-05-14T11:35:10.992Z,34.15
2023-05-14T11:36:51.339Z,35.16
2023-05-14T11:38:31.699Z,36.32
2023-05-14T11:40:12.153Z,34.7
2023-05-14T11:41:52.727Z,37.38
2023-05-14T11:43:32.868Z,37.78
2023-05-14T11:45:13.247Z,36.7
2023-05-14T11:46:53.768Z,35.19
2023-05-14T11:48:34.194Z,38.67
2023-05-14T11:50:14.617Z,36.4
2023-05-14T11:51:55.027Z,38.31
2023-05-14T11:53:35.546Z,36.15
2023-05-14T11:55:15.955Z,36.41
2023-05-14T11:56:56.353Z,35.1
2023-05-14T11:58:36.776Z,35.36
2023-05-14T12:00:20.291Z,35.78
2023-05-14T12:01:57.637Z,36.21
2023-05-14T12:03:38.192Z,37.39
2023-05-14T12:05:18.506Z,36.72
2023-05-14T12:06:58.883Z,36.96
2023-05-14T12:08:39.280Z,37.63
2023-05-14T12:10:19.730Z,39.27
2023-05-14T12:12:00.058Z,39.82
2023-05-14T12:13:40.403Z,44.49
2023-05-14T12:15:20.785Z,42.39
2023-05-14T12:17:01.291Z,43.09
2023-05-14T12:18:41.818Z,43.13
2023-05-14T12:20:22.311Z,44.2
2023-05-14T12:22:02.699Z,44.67
2023-05-14T12:23:43.044Z,45.47
2023-05-14T12:25:23.452Z,46.47
2023-05-14T12:27:03.840Z,48.67
2023-05-14T12:28:44.155Z,50.57
2023-05-14T12:30:24.712Z,52.67
2023-05-14T12:32:05.117Z,52.74
2023-05-14T12:33:45.459Z,53.06
2023-05-14T12:35:25.992Z,54.94
2023-05-14T12:37:06.228Z,56.84
2023-05-14T12:38:46.688Z,59.32
2023-05-14T12:40:27.217Z,59.26
2023-05-14T12:42:07.625Z,57.88
2023-05-14T12:43:47.936Z,60.31
2023-05-14T12:45:28.347Z,57.91
2023-05-14T12:47:08.873Z,59.98
2023-05-14T12:48:51.188Z,59.87
2023-05-14T12:50:29.796Z,59.22
2023-05-14T12:52:22.710Z,60.32
2023-05-14T12:53:50.607Z,60.85
2023-05-14T12:55:31.038Z,60.67
2023-05-14T12:57:11.514Z,61.53
2023-05-14T12:58:51.991Z,61.73
2023-05-14T13:00:32.455Z,61.23
2023-05-14T13:02:13.032Z,60.93
2023-05-14T13:03:53.295Z,61.06
2023-05-14T13:05:33.576Z,58.52
2023-05-14T13:07:13.998Z,58.08
2023-05-14T13:08:54.367Z,58.54
2023-05-14T13:10:34.767Z,57.23
2023-05-14T13:12:15.135Z,56.25
2023-05-14T13:13:55.552Z,54.24
2023-05-14T13:15:35.979Z,55.92
2023-05-14T13:17:16.384Z,55.65
2023-05-14T13:18:56.774Z,56.46
2023-05-14T13:20:37.244Z,59.35
2023-05-14T13:22:17.681Z,63.43
2023-05-14T13:23:58.154Z,63.89
2023-05-14T13:25:38.578Z,65.72
2023-05-14T13:27:19.043Z,64.66
2023-05-14T13:28:59.479Z,61.78
2023-05-14T13:30:39.930Z,61.08
2023-05-14T13:32:20.309Z,62.47
2023-05-14T13:34:00.759Z,62.13
2023-05-14T13:35:41.201Z,61.51
2023-05-14T13:37:21.639Z,62.2
2023-05-14T13:39:01.960Z,62.56
2023-05-14T13:40:42.430Z,65.66
2023-05-14T13:42:22.778Z,65.68
2023-05-14T13:44:03.197Z,61.37
2023-05-14T13:45:43.606Z,63.39
2023-05-14T13:47:24.136Z,64.99
2023-05-14T13:49:04.511Z,62.67
2023-05-14T13:50:44.942Z,62.69
2023-05-14T13:52:25.351Z,63.22
2023-05-14T13:54:05.803Z,62.67
2023-05-14T13:55:47.880Z,64.74
2023-05-14T13:57:26.384Z,63.26
2023-05-14T13:59:06.764Z,63.4
2023-05-14T14:00:47.176Z,62.46
2023-05-14T14:02:27.576Z,63.58
2023-05-14T14:04:07.882Z,64.11
2023-05-14T14:05:48.235Z,62.61
2023-05-14T14:07:31.667Z,60.84
2023-05-14T14:09:09.055Z,61.51
2023-05-14T14:10:49.477Z,63.92
2023-05-14T14:12:30.020Z,65.16
2023-05-14T14:14:10.137Z,62.84
2023-05-14T14:15:50.596Z,64.98
2023-05-14T14:17:31.027Z,61.96
2023-05-14T14:19:11.523Z,62.23
2023-05-14T14:20:51.883Z,62.08
2023-05-14T14:22:32.337Z,60.06
2023-05-14T14:24:12.791Z,56.23
2023-05-14T14:25:53.195Z,57.46
2023-05-14T14:27:33.519Z,58.95
2023-05-14T14:29:13.789Z,55.24
2023-05-14T14:30:54.213Z,53.65
2023-05-14T14:32:34.707Z,57.93
2023-05-14T14:34:15.108Z,54.43
2023-05-14T14:35:55.527Z,55.03
2023-05-14T14:37:35.911Z,55.17
2023-05-14T14:39:16.346Z,51.94
2023-05-14T14:40:59.928Z,53.27
2023-05-14T14:42:37.152Z,52.69
2023-05-14T14:44:17.544Z,53.3
2023-05-14T14:45:58.031Z,54.76
2023-05-14T14:47:38.456Z,55.69
2023-05-14T14:49:18.789Z,51.85
2023-05-14T14:50:59.265Z,52.37
2023-05-14T14:52:39.710Z,54.15
2023-05-14T14:54:20.119Z,53.82
2023-05-14T14:56:00.664Z,54.07
2023-05-14T14:57:41.014Z,53.05
2023-05-14T14:59:22.023Z,53.54
2023-05-14T15:01:02.586Z,54.77
2023-05-14T15:02:43.022Z,54.15
2023-05-14T15:04:23.380Z,53.76
2023-05-14T15:06:03.779Z,54.61
2023-05-14T15:07:44.160Z,53.58
2023-05-14T15:09:24.574Z,55.6
2023-05-14T15:11:04.909Z,54.48
2023-05-14T15:12:45.354Z,54.59
2023-05-14T15:14:25.764Z,56.52
2023-05-14T15:16:06.204Z,57.69
2023-05-14T15:17:46.757Z,57.74
2023-05-14T15:19:30.161Z,55.72
2023-05-14T15:21:07.548Z,56.61
2023-05-14T15:22:47.937Z,57.49
2023-05-14T15:24:28.344Z,55.96
2023-05-14T15:26:08.704Z,56.6
2023-05-14T15:27:49.032Z,57.98
2023-05-14T15:29:29.508Z,56.66
2023-05-14T15:31:09.957Z,56.74
2023-05-14T15:32:50.318Z,57.5
2023-05-14T15:34:30.767Z,58.77
2023-05-14T15:36:11.226Z,58.48
2023-05-14T15:37:51.689Z,57
2023-05-14T15:39:32.108Z,53.85
2023-05-14T15:41:12.513Z,54.85
2023-05-14T15:42:52.939Z,54.51
2023-05-14T15:44:33.430Z,51.99
2023-05-14T15:46:13.900Z,50.98
2023-05-14T15:47:54.354Z,50.98
2023-05-14T15:49:34.798Z,51.45
2023-05-14T15:51:15.216Z,51.36
2023-05-14T15:52:55.669Z,50.68
2023-05-14T15:54:36.053Z,48.99
2023-05-14T15:56:16.476Z,49.65
2023-05-14T15:57:56.988Z,49.2
2023-05-14T15:59:37.420Z,48.69
2023-05-14T16:01:17.826Z,49.25
2023-05-14T16:02:58.302Z,49.49
2023-05-14T16:04:38.679Z,48.85
2023-05-14T16:06:19.132Z,50.4
2023-05-14T16:07:59.518Z,48.32
2023-05-14T16:09:39.981Z,50.17
2023-05-14T16:11:20.418Z,49.54
2023-05-14T16:13:00.911Z,48.89
2023-05-14T16:14:42.007Z,48.25
2023-05-14T16:16:21.799Z,47.78
2023-05-14T16:18:02.238Z,48.34
2023-05-14T16:19:42.645Z,48.76
2023-05-14T16:21:23.205Z,48.03
2023-05-14T16:23:03.694Z,47.01
2023-05-14T16:24:44.235Z,47.44
2023-05-14T16:26:24.577Z,48.14
2023-05-14T16:28:05.018Z,48.17
2023-05-14T16:29:45.556Z,50.48
2023-05-14T16:31:25.946Z,51.21
2023-05-14T16:33:06.338Z,51.65
2023-05-14T16:34:46.684Z,51.69
2023-05-14T16:36:27.082Z,51.95
2023-05-14T16:38:07.504Z,52.61
2023-05-14T16:39:47.922Z,53.71
2023-05-14T16:41:28.390Z,54.01
2023-05-14T16:43:08.763Z,54.25
2023-05-14T16:44:49.210Z,55.7
2023-05-14T16:46:29.700Z,54.31
2023-05-14T16:48:10.153Z,56.3
2023-05-14T16:49:50.435Z,55.79
2023-05-14T16:51:30.875Z,56.44
2023-05-14T16:53:11.274Z,57.04
2023-05-14T16:54:51.662Z,57.06
2023-05-14T16:56:32.040Z,57.35
2023-05-14T16:58:12.655Z,56.31
2023-05-14T16:59:52.778Z,57.11
2023-05-14T17:01:33.124Z,57.2
2023-05-14T17:03:13.492Z,58.28
2023-05-14T17:04:53.810Z,58.04
2023-05-14T17:06:34.240Z,58.41
2023-05-14T17:08:14.653Z,59.5
2023-05-14T17:09:55.094Z,59.53
2023-05-14T17:11:35.529Z,60.34
2023-05-14T17:13:15.898Z,61.34
2023-05-14T17:14:56.405Z,61.55
2023-05-14T17:16:36.822Z,61.89
2023-05-14T17:18:17.333Z,62.49
2023-05-14T17:19:57.990Z,62.67
2023-05-14T17:21:38.159Z,63.02
2023-05-14T17:23:18.571Z,63.3
2023-05-14T17:24:59.054Z,63.88
2023-05-14T17:26:39.483Z,64.08
2023-05-14T17:28:19.959Z,63.83
2023-05-14T17:30:00.483Z,63.82
2023-05-14T17:31:40.939Z,64.35
2023-05-14T17:33:21.437Z,64.03
2023-05-14T17:35:01.782Z,64.54
2023-05-14T17:36:42.147Z,63.87
2023-05-14T17:38:22.579Z,63.56
2023-05-14T17:40:03.052Z,64.2
2023-05-14T17:41:43.434Z,64.3
2023-05-14T17:43:26.935Z,62.48
2023-05-14T17:45:04.286Z,63.05
2023-05-14T17:46:44.797Z,62.66
2023-05-14T17:48:25.083Z,62.78
2023-05-14T17:50:05.514Z,62.97
2023-05-14T17:51:45.962Z,63.18
2023-05-14T17:53:26.424Z,63.32
2023-05-14T17:55:06.754Z,62.19
2023-05-14T17:56:47.197Z,62.19
2023-05-14T17:58:27.566Z,61.06
2023-05-14T18:00:08.112Z,61.8
2023-05-14T18:01:48.490Z,61.57
2023-05-14T18:03:29.200Z,62.14
2023-05-14T18:05:09.411Z,62.75
2023-05-14T18:08:33.328Z,63.8
2023-05-14T18:10:10.733Z,64.8
2023-05-14T18:11:51.173Z,65.98
2023-05-14T18:13:31.564Z,66.93
2023-05-14T18:15:12.025Z,67.05
2023-05-14T18:16:55.587Z,67.22
2023-05-14T18:18:32.885Z,67.23
2023-05-14T18:20:13.282Z,68.43
2023-05-14T18:21:56.749Z,68.28
2023-05-14T18:23:34.132Z,69.85
2023-05-14T18:25:14.529Z,69.65
2023-05-14T18:26:54.931Z,70.4
2023-05-14T18:28:35.357Z,72.34
2023-05-14T18:30:18.847Z,73.24
2023-05-14T18:31:56.231Z,74.38
2023-05-14T18:33:36.766Z,75.41
2023-05-14T18:35:17.289Z,76.29
2023-05-14T18:36:57.705Z,76.3
2023-05-14T18:38:38.119Z,77.59
2023-05-14T18:40:25.648Z,76.41
2023-05-14T18:41:59.034Z,76.61
2023-05-14T18:43:39.432Z,75.98
2023-05-14T18:45:19.881Z,75.48
2023-05-14T18:47:00.392Z,75.99
2023-05-14T18:48:40.832Z,74.45
2023-05-14T18:50:21.188Z,73.86
2023-05-14T18:52:01.663Z,73.64
2023-05-14T18:53:45.044Z,75.28
2023-05-14T18:55:22.723Z,77.73
2023-05-14T18:57:02.852Z,76.93
2023-05-14T18:58:43.232Z,76.96
2023-05-14T19:00:23.586Z,77.06
2023-05-14T19:02:04.177Z,76.49
2023-05-14T19:03:47.534Z,77.16
2023-05-14T19:05:24.963Z,77.54
2023-05-14T19:07:05.153Z,79.22
2023-05-14T19:08:45.590Z,79.79
2023-05-14T19:10:25.999Z,79.54
2023-05-14T19:12:06.478Z,78.75
2023-05-14T19:13:46.907Z,80.23
2023-05-14T19:15:27.283Z,80.07
2023-05-14T19:17:07.676Z,80.06
2023-05-14T19:18:48.107Z,79.56
2023-05-14T19:20:28.415Z,79.99
2023-05-14T19:22:08.838Z,80.09
2023-05-14T19:23:49.362Z,80.54
2023-05-14T19:25:29.696Z,80.73
2023-05-14T19:27:10.132Z,81.11
2023-05-14T19:28:50.542Z,81.81
2023-05-14T19:30:31.015Z,82.3
2023-05-14T19:32:11.435Z,82.11
2023-05-14T19:33:51.793Z,82.5
2023-05-14T19:35:32.270Z,82.76
2023-05-14T19:37:12.714Z,83.52
2023-05-14T19:38:53.164Z,84.63
2023-05-14T19:40:33.655Z,84.52
2023-05-14T19:42:14.169Z,85.24
2023-05-14T19:43:54.525Z,85.46
2023-05-14T19:45:35.037Z,84.78
2023-05-14T19:47:15.535Z,85.19
2023-05-14T19:48:55.866Z,85.23
2023-05-14T19:50:36.343Z,85.86
2023-05-14T19:52:16.694Z,86
2023-05-14T19:53:57.119Z,86.14
2023-05-14T19:55:37.464Z,85.57
2023-05-14T19:57:17.942Z,85.31
2023-05-14T19:58:58.323Z,85.52
2023-05-14T20:00:38.681Z,86.22
2023-05-14T20:02:20.117Z,86.88
2023-05-14T20:03:59.428Z,86.81
2023-05-14T20:05:39.797Z,87.05
2023-05-14T20:07:20.220Z,86.92
2023-05-14T20:09:00.640Z,86.92
2023-05-14T20:10:41.017Z,86.59
2023-05-14T20:12:21.480Z,86.45
2023-05-14T20:14:01.870Z,86.83
2023-05-14T20:15:42.251Z,87.17
2023-05-14T20:17:22.789Z,87.6
2023-05-14T20:19:03.229Z,87.24
2023-05-14T20:20:43.543Z,87.24
2023-05-14T20:22:23.976Z,87.91
2023-05-14T20:24:04.450Z,88.08
2023-05-14T20:25:44.863Z,88.04
2023-05-14T20:27:25.329Z,88.36
2023-05-14T20:29:05.781Z,88.23
2023-05-14T20:30:46.135Z,88.73
2023-05-14T20:32:26.547Z,89.07
2023-05-14T20:34:06.961Z,88.85
2023-05-14T20:35:47.393Z,89.02
2023-05-14T20:37:27.829Z,89.45
2023-05-14T20:39:08.250Z,89.78
2023-05-14T20:40:48.659Z,89.87
2023-05-14T20:42:29.049Z,89.89
2023-05-14T20:44:09.376Z,90.23
2023-05-14T20:45:49.774Z,90.45
2023-05-14T20:47:30.102Z,90.34
2023-05-14T20:49:10.433Z,90.03
2023-05-14T20:50:50.904Z,90.31
2023-05-14T20:52:31.357Z,90.24
2023-05-14T20:54:11.777Z,90.23
2023-05-14T20:55:52.193Z,90.63
2023-05-14T20:57:32.549Z,90.83
2023-05-14T20:59:12.958Z,90.85
2023-05-14T21:00:53.391Z,90.71
2023-05-14T21:02:33.897Z,90.74
2023-05-14T21:04:14.529Z,90.88
2023-05-14T21:05:54.683Z,91.21
2023-05-14T21:07:35.142Z,91.65
2023-05-14T21:09:15.553Z,91.82
2023-05-14T21:10:55.999Z,91.78
2023-05-14T21:12:36.366Z,92.26
2023-05-14T21:14:16.835Z,93.07
2023-05-14T21:15:57.280Z,93.15
2023-05-14T21:17:37.802Z,93.26
2023-05-14T21:19:18.175Z,93.03
2023-05-14T21:20:58.543Z,92.87
2023-05-14T21:22:38.986Z,93.22
2023-05-14T21:24:19.443Z,93.37
2023-05-14T21:25:59.739Z,93.6
2023-05-14T21:27:40.305Z,93.74
2023-05-14T21:29:20.666Z,93.72
2023-05-14T21:31:01.083Z,93.74
2023-05-14T21:32:41.497Z,93.75
2023-05-14T21:34:21.946Z,93.75
2023-05-14T21:36:02.286Z,94.21
2023-05-14T21:37:42.690Z,93.65
2023-05-14T21:39:23.033Z,93.49
2023-05-14T21:41:03.370Z,93.57